sensor_id;sensor_type;location;lat;lon;timestamp;temperature;humidity
14585;DHT22;7379;51.506;11.876;2023-07-30T00:00:59;21.50;68.90
14585;DHT22;7379;51.506;11.876;2023-07-30T00:03:25;21.50;68.90
14585;DHT22;7379;51.506;11.876;2023-07-30T00:05:53;21.50;68.90
14585;DHT22;7379;51.506;11.876;2023-07-30T00:08:21;21.50;68.90
14585;DHT22;7379;51.506;11.876;2023-07-30T00:10:49;21.50;68.90
14585;DHT22;7379;51.506;11.876;2023-07-30T00:13:15;21.50;68.90
14585;DHT22;7379;51.506;11.876;2023-07-30T00:15:42;21.40;68.90
14585;DHT22;7379;51.506;11.876;2023-07-30T00:18:11;21.40;68.90
14585;DHT22;7379;51.506;11.876;2023-07-30T00:20:38;21.40;68.90
14585;DHT22;7379;51.506;11.876;2023-07-30T00:23:05;21.40;68.90
14585;DHT22;7379;51.506;11.876;2023-07-30T00:25:33;21.40;68.90
14585;DHT22;7379;51.506;11.876;2023-07-30T00:28:00;21.40;69.00
14585;DHT22;7379;51.506;11.876;2023-07-30T00:30:26;21.40;69.00
14585;DHT22;7379;51.506;11.876;2023-07-30T00:32:53;21.40;69.00
14585;DHT22;7379;51.506;11.876;2023-07-30T00:35:20;21.30;68.90
14585;DHT22;7379;51.506;11.876;2023-07-30T00:37:47;21.40;69.00
14585;DHT22;7379;51.506;11.876;2023-07-30T00:46:56;21.30;68.90
14585;DHT22;7379;51.506;11.876;2023-07-30T00:49:23;21.30;69.00
14585;DHT22;7379;51.506;11.876;2023-07-30T00:51:49;21.20;69.60
14585;DHT22;7379;51.506;11.876;2023-07-30T00:54:16;21.30;69.00
14585;DHT22;7379;51.506;11.876;2023-07-30T00:56:50;21.20;68.90
14585;DHT22;7379;51.506;11.876;2023-07-30T00:59:17;21.20;68.90
14585;DHT22;7379;51.506;11.876;2023-07-30T01:01:46;21.20;68.90
14585;DHT22;7379;51.506;11.876;2023-07-30T01:04:15;21.20;69.00
14585;DHT22;7379;51.506;11.876;2023-07-30T01:06:43;21.20;69.00
14585;DHT22;7379;51.506;11.876;2023-07-30T01:09:10;21.20;69.00
14585;DHT22;7379;51.506;11.876;2023-07-30T01:11:38;21.20;69.00
14585;DHT22;7379;51.506;11.876;2023-07-30T01:14:06;21.20;69.00
14585;DHT22;7379;51.506;11.876;2023-07-30T01:16:34;21.10;68.90
14585;DHT22;7379;51.506;11.876;2023-07-30T01:19:01;21.10;68.90
14585;DHT22;7379;51.506;11.876;2023-07-30T01:21:32;21.10;68.90
14585;DHT22;7379;51.506;11.876;2023-07-30T01:23:59;21.10;69.00
14585;DHT22;7379;51.506;11.876;2023-07-30T01:26:30;21.10;69.00
14585;DHT22;7379;51.506;11.876;2023-07-30T01:29:00;21.10;69.00
14585;DHT22;7379;51.506;11.876;2023-07-30T01:31:32;21.10;69.00
14585;DHT22;7379;51.506;11.876;2023-07-30T01:34:02;21.10;69.00
14585;DHT22;7379;51.506;11.876;2023-07-30T01:36:30;21.10;69.00
14585;DHT22;7379;51.506;11.876;2023-07-30T01:38:59;21.00;69.00
14585;DHT22;7379;51.506;11.876;2023-07-30T01:41:26;21.00;69.00
14585;DHT22;7379;51.506;11.876;2023-07-30T01:43:54;21.00;69.00
14585;DHT22;7379;51.506;11.876;2023-07-30T01:46:20;21.00;69.00
14585;DHT22;7379;51.506;11.876;2023-07-30T01:48:47;21.00;69.00
14585;DHT22;7379;51.506;11.876;2023-07-30T01:51:14;21.00;69.00
14585;DHT22;7379;51.506;11.876;2023-07-30T01:53:40;21.00;69.10
14585;DHT22;7379;51.506;11.876;2023-07-30T01:56:08;21.00;69.10
14585;DHT22;7379;51.506;11.876;2023-07-30T01:58:35;21.00;69.10
14585;DHT22;7379;51.506;11.876;2023-07-30T02:01:02;21.00;69.10
14585;DHT22;7379;51.506;11.876;2023-07-30T02:03:28;20.90;69.00
14585;DHT22;7379;51.506;11.876;2023-07-30T02:05:55;21.00;69.20
14585;DHT22;7379;51.506;11.876;2023-07-30T02:08:22;20.90;69.10
14585;DHT22;7379;51.506;11.876;2023-07-30T02:10:55;20.90;69.10
14585;DHT22;7379;51.506;11.876;2023-07-30T02:13:23;20.90;69.10
14585;DHT22;7379;51.506;11.876;2023-07-30T02:15:50;20.90;69.10
14585;DHT22;7379;51.506;11.876;2023-07-30T02:18:16;20.90;69.20
14585;DHT22;7379;51.506;11.876;2023-07-30T02:20:43;20.90;69.20
14585;DHT22;7379;51.506;11.876;2023-07-30T02:23:10;20.90;69.20
14585;DHT22;7379;51.506;11.876;2023-07-30T02:25:38;20.90;69.20
14585;DHT22;7379;51.506;11.876;2023-07-30T02:28:04;20.90;69.20
14585;DHT22;7379;51.506;11.876;2023-07-30T02:30:34;20.90;69.20
14585;DHT22;7379;51.506;11.876;2023-07-30T02:33:00;20.80;69.10
14585;DHT22;7379;51.506;11.876;2023-07-30T02:35:27;20.80;69.20
14585;DHT22;7379;51.506;11.876;2023-07-30T02:37:54;20.80;69.10
14585;DHT22;7379;51.506;11.876;2023-07-30T02:40:21;20.80;69.20
14585;DHT22;7379;51.506;11.876;2023-07-30T02:42:47;20.80;69.20
14585;DHT22;7379;51.506;11.876;2023-07-30T02:45:14;20.80;69.20
14585;DHT22;7379;51.506;11.876;2023-07-30T02:47:42;20.80;69.20
14585;DHT22;7379;51.506;11.876;2023-07-30T02:50:09;20.80;69.20
14585;DHT22;7379;51.506;11.876;2023-07-30T02:52:36;20.70;69.20
14585;DHT22;7379;51.506;11.876;2023-07-30T02:55:03;20.80;69.30
14585;DHT22;7379;51.506;11.876;2023-07-30T02:57:30;20.70;69.20
14585;DHT22;7379;51.506;11.876;2023-07-30T02:59:56;20.70;69.20
14585;DHT22;7379;51.506;11.876;2023-07-30T03:02:23;20.70;69.20
14585;DHT22;7379;51.506;11.876;2023-07-30T03:04:51;20.70;69.30
14585;DHT22;7379;51.506;11.876;2023-07-30T03:07:18;20.70;69.30
14585;DHT22;7379;51.506;11.876;2023-07-30T03:09:45;20.70;69.30
14585;DHT22;7379;51.506;11.876;2023-07-30T03:12:12;20.70;69.30
14585;DHT22;7379;51.506;11.876;2023-07-30T03:14:39;20.70;69.40
14585;DHT22;7379;51.506;11.876;2023-07-30T03:17:06;20.60;69.30
14585;DHT22;7379;51.506;11.876;2023-07-30T03:19:32;20.70;69.40
14585;DHT22;7379;51.506;11.876;2023-07-30T03:22:00;20.70;69.40
14585;DHT22;7379;51.506;11.876;2023-07-30T03:24:27;20.60;69.40
14585;DHT22;7379;51.506;11.876;2023-07-30T03:26:54;20.60;69.40
14585;DHT22;7379;51.506;11.876;2023-07-30T03:29:20;20.60;69.40
14585;DHT22;7379;51.506;11.876;2023-07-30T03:31:47;20.60;69.50
14585;DHT22;7379;51.506;11.876;2023-07-30T03:34:14;20.60;69.50
14585;DHT22;7379;51.506;11.876;2023-07-30T03:36:40;20.60;69.50
14585;DHT22;7379;51.506;11.876;2023-07-30T03:39:08;20.60;69.60
14585;DHT22;7379;51.506;11.876;2023-07-30T03:41:36;20.60;69.60
14585;DHT22;7379;51.506;11.876;2023-07-30T03:44:03;20.50;69.50
14585;DHT22;7379;51.506;11.876;2023-07-30T03:46:29;20.60;69.60
14585;DHT22;7379;51.506;11.876;2023-07-30T03:48:56;20.60;69.60
14585;DHT22;7379;51.506;11.876;2023-07-30T03:51:23;20.50;69.60
14585;DHT22;7379;51.506;11.876;2023-07-30T03:53:50;20.50;69.60
14585;DHT22;7379;51.506;11.876;2023-07-30T03:56:18;20.50;69.60
14585;DHT22;7379;51.506;11.876;2023-07-30T03:58:44;20.50;69.70
14585;DHT22;7379;51.506;11.876;2023-07-30T04:01:11;20.50;69.70
14585;DHT22;7379;51.506;11.876;2023-07-30T04:03:38;20.50;69.70
14585;DHT22;7379;51.506;11.876;2023-07-30T04:06:04;20.50;69.80
14585;DHT22;7379;51.506;11.876;2023-07-30T04:08:31;20.50;69.80
14585;DHT22;7379;51.506;11.876;2023-07-30T04:10:58;20.40;69.70
14585;DHT22;7379;51.506;11.876;2023-07-30T04:13:26;20.50;69.90
14585;DHT22;7379;51.506;11.876;2023-07-30T04:15:52;20.50;69.90
14585;DHT22;7379;51.506;11.876;2023-07-30T04:18:19;20.50;69.90
14585;DHT22;7379;51.506;11.876;2023-07-30T04:20:48;20.40;69.90
14585;DHT22;7379;51.506;11.876;2023-07-30T04:23:14;20.40;69.90
14585;DHT22;7379;51.506;11.876;2023-07-30T04:25:42;20.50;70.00
14585;DHT22;7379;51.506;11.876;2023-07-30T04:28:08;20.40;69.90
14585;DHT22;7379;51.506;11.876;2023-07-30T04:30:36;20.40;69.90
14585;DHT22;7379;51.506;11.876;2023-07-30T04:33:03;20.40;70.00
14585;DHT22;7379;51.506;11.876;2023-07-30T04:35:30;20.40;70.00
14585;DHT22;7379;51.506;11.876;2023-07-30T04:37:56;20.40;70.00
14585;DHT22;7379;51.506;11.876;2023-07-30T04:40:23;20.40;70.00
14585;DHT22;7379;51.506;11.876;2023-07-30T04:42:50;20.40;70.00
14585;DHT22;7379;51.506;11.876;2023-07-30T04:45:17;20.40;70.00
14585;DHT22;7379;51.506;11.876;2023-07-30T04:47:45;20.40;70.10
14585;DHT22;7379;51.506;11.876;2023-07-30T04:50:11;20.40;70.10
14585;DHT22;7379;51.506;11.876;2023-07-30T04:52:38;20.40;70.10
14585;DHT22;7379;51.506;11.876;2023-07-30T04:55:06;20.40;70.10
14585;DHT22;7379;51.506;11.876;2023-07-30T04:57:33;20.40;70.20
14585;DHT22;7379;51.506;11.876;2023-07-30T04:59:59;20.30;70.00
14585;DHT22;7379;51.506;11.876;2023-07-30T05:02:26;20.40;70.20
14585;DHT22;7379;51.506;11.876;2023-07-30T05:04:54;20.30;70.10
14585;DHT22;7379;51.506;11.876;2023-07-30T05:07:21;20.30;70.10
14585;DHT22;7379;51.506;11.876;2023-07-30T05:09:48;20.30;70.10
14585;DHT22;7379;51.506;11.876;2023-07-30T05:12:14;20.30;70.20
14585;DHT22;7379;51.506;11.876;2023-07-30T05:14:41;20.30;70.20
14585;DHT22;7379;51.506;11.876;2023-07-30T05:17:08;20.30;70.30
14585;DHT22;7379;51.506;11.876;2023-07-30T05:19:35;20.30;70.80
14585;DHT22;7379;51.506;11.876;2023-07-30T05:22:03;20.30;71.00
14585;DHT22;7379;51.506;11.876;2023-07-30T05:24:31;20.40;71.00
14585;DHT22;7379;51.506;11.876;2023-07-30T05:26:58;20.40;70.90
14585;DHT22;7379;51.506;11.876;2023-07-30T05:29:24;20.50;71.00
14585;DHT22;7379;51.506;11.876;2023-07-30T05:31:51;20.50;70.90
14585;DHT22;7379;51.506;11.876;2023-07-30T05:34:18;20.50;70.80
14585;DHT22;7379;51.506;11.876;2023-07-30T05:36:44;20.50;70.90
14585;DHT22;7379;51.506;11.876;2023-07-30T05:39:12;20.60;70.90
14585;DHT22;7379;51.506;11.876;2023-07-30T05:41:39;20.60;70.90
14585;DHT22;7379;51.506;11.876;2023-07-30T05:44:06;20.60;70.80
14585;DHT22;7379;51.506;11.876;2023-07-30T05:46:32;20.60;70.80
14585;DHT22;7379;51.506;11.876;2023-07-30T05:48:59;20.60;70.80
14585;DHT22;7379;51.506;11.876;2023-07-30T05:51:26;20.50;70.70
14585;DHT22;7379;51.506;11.876;2023-07-30T05:53:53;20.50;70.80
14585;DHT22;7379;51.506;11.876;2023-07-30T05:56:21;20.50;70.90
14585;DHT22;7379;51.506;11.876;2023-07-30T05:58:47;20.50;70.90
14585;DHT22;7379;51.506;11.876;2023-07-30T06:01:14;20.40;70.80
14585;DHT22;7379;51.506;11.876;2023-07-30T06:03:41;20.50;71.00
14585;DHT22;7379;51.506;11.876;2023-07-30T06:06:07;20.40;71.00
14585;DHT22;7379;51.506;11.876;2023-07-30T06:08:34;20.40;71.00
14585;DHT22;7379;51.506;11.876;2023-07-30T06:11:01;20.40;71.10
14585;DHT22;7379;51.506;11.876;2023-07-30T06:13:30;20.40;71.90
14585;DHT22;7379;51.506;11.876;2023-07-30T06:15:57;20.40;71.30
14585;DHT22;7379;51.506;11.876;2023-07-30T06:18:23;20.40;71.40
14585;DHT22;7379;51.506;11.876;2023-07-30T06:20:50;20.40;71.40
14585;DHT22;7379;51.506;11.876;2023-07-30T06:23:17;20.40;71.50
14585;DHT22;7379;51.506;11.876;2023-07-30T06:25:43;20.40;71.40
14585;DHT22;7379;51.506;11.876;2023-07-30T06:28:10;20.40;71.50
14585;DHT22;7379;51.506;11.876;2023-07-30T06:30:38;20.40;71.50
14585;DHT22;7379;51.506;11.876;2023-07-30T06:33:05;20.50;71.50
14585;DHT22;7379;51.506;11.876;2023-07-30T06:35:32;20.50;71.40
14585;DHT22;7379;51.506;11.876;2023-07-30T06:37:58;20.50;71.40
14585;DHT22;7379;51.506;11.876;2023-07-30T06:40:25;20.50;71.50
14585;DHT22;7379;51.506;11.876;2023-07-30T06:42:52;20.50;71.50
14585;DHT22;7379;51.506;11.876;2023-07-30T06:45:19;20.50;71.50
14585;DHT22;7379;51.506;11.876;2023-07-30T06:47:47;20.50;71.50
14585;DHT22;7379;51.506;11.876;2023-07-30T06:50:14;20.50;71.30
14585;DHT22;7379;51.506;11.876;2023-07-30T06:52:41;20.60;71.40
14585;DHT22;7379;51.506;11.876;2023-07-30T06:55:08;20.60;71.40
14585;DHT22;7379;51.506;11.876;2023-07-30T06:57:35;20.60;71.40
14585;DHT22;7379;51.506;11.876;2023-07-30T07:00:02;20.60;71.30
14585;DHT22;7379;51.506;11.876;2023-07-30T07:02:30;20.60;71.30
14585;DHT22;7379;51.506;11.876;2023-07-30T07:04:59;20.60;71.20
14585;DHT22;7379;51.506;11.876;2023-07-30T07:07:26;20.60;71.10
14585;DHT22;7379;51.506;11.876;2023-07-30T07:09:53;20.70;71.10
14585;DHT22;7379;51.506;11.876;2023-07-30T07:12:19;20.60;70.90
14585;DHT22;7379;51.506;11.876;2023-07-30T07:14:46;20.70;70.80
14585;DHT22;7379;51.506;11.876;2023-07-30T07:17:13;20.70;70.50
14585;DHT22;7379;51.506;11.876;2023-07-30T07:19:40;20.70;70.50
14585;DHT22;7379;51.506;11.876;2023-07-30T07:22:08;20.70;70.30
14585;DHT22;7379;51.506;11.876;2023-07-30T07:24:35;20.70;70.30
14585;DHT22;7379;51.506;11.876;2023-07-30T07:27:01;20.80;70.20
14585;DHT22;7379;51.506;11.876;2023-07-30T07:29:28;20.80;70.00
14585;DHT22;7379;51.506;11.876;2023-07-30T07:31:55;20.80;69.70
14585;DHT22;7379;51.506;11.876;2023-07-30T07:34:22;20.90;69.60
14585;DHT22;7379;51.506;11.876;2023-07-30T07:36:48;20.90;69.40
14585;DHT22;7379;51.506;11.876;2023-07-30T07:39:16;20.90;69.20
14585;DHT22;7379;51.506;11.876;2023-07-30T07:41:43;20.90;69.20
14585;DHT22;7379;51.506;11.876;2023-07-30T07:44:10;20.90;69.10
14585;DHT22;7379;51.506;11.876;2023-07-30T07:46:37;20.90;68.90
14585;DHT22;7379;51.506;11.876;2023-07-30T07:49:03;20.90;68.90
14585;DHT22;7379;51.506;11.876;2023-07-30T07:51:30;20.90;68.90
14585;DHT22;7379;51.506;11.876;2023-07-30T07:53:57;21.00;69.00
14585;DHT22;7379;51.506;11.876;2023-07-30T07:56:25;21.00;68.90
14585;DHT22;7379;51.506;11.876;2023-07-30T07:58:51;21.00;68.70
14585;DHT22;7379;51.506;11.876;2023-07-30T08:01:18;20.90;68.50
14585;DHT22;7379;51.506;11.876;2023-07-30T08:03:45;20.90;68.40
14585;DHT22;7379;51.506;11.876;2023-07-30T08:06:12;20.90;68.40
14585;DHT22;7379;51.506;11.876;2023-07-30T08:08:38;20.90;68.40
14585;DHT22;7379;51.506;11.876;2023-07-30T08:11:06;21.00;68.40
14585;DHT22;7379;51.506;11.876;2023-07-30T08:13:35;21.00;68.10
14585;DHT22;7379;51.506;11.876;2023-07-30T08:16:02;21.00;67.80
14585;DHT22;7379;51.506;11.876;2023-07-30T08:18:29;21.00;67.60
14585;DHT22;7379;51.506;11.876;2023-07-30T08:20:55;21.00;67.40
14585;DHT22;7379;51.506;11.876;2023-07-30T08:23:22;21.10;67.30
14585;DHT22;7379;51.506;11.876;2023-07-30T08:25:49;21.10;67.30
14585;DHT22;7379;51.506;11.876;2023-07-30T08:28:16;21.10;67.20
14585;DHT22;7379;51.506;11.876;2023-07-30T08:30:44;21.10;67.10
14585;DHT22;7379;51.506;11.876;2023-07-30T08:33:11;21.10;66.80
14585;DHT22;7379;51.506;11.876;2023-07-30T08:35:41;21.10;66.60
14585;DHT22;7379;51.506;11.876;2023-07-30T08:38:07;21.20;66.30
14585;DHT22;7379;51.506;11.876;2023-07-30T08:40:34;21.20;66.00
14585;DHT22;7379;51.506;11.876;2023-07-30T08:43:02;21.20;65.70
14585;DHT22;7379;51.506;11.876;2023-07-30T08:45:30;21.20;65.50
14585;DHT22;7379;51.506;11.876;2023-07-30T08:47:58;21.20;65.40
14585;DHT22;7379;51.506;11.876;2023-07-30T08:50:25;21.20;65.30
14585;DHT22;7379;51.506;11.876;2023-07-30T08:52:53;21.30;65.10
14585;DHT22;7379;51.506;11.876;2023-07-30T08:55:20;21.30;63.70
14585;DHT22;7379;51.506;11.876;2023-07-30T08:57:48;21.30;62.60
14585;DHT22;7379;51.506;11.876;2023-07-30T09:00:17;21.30;62.60
14585;DHT22;7379;51.506;11.876;2023-07-30T09:02:48;21.30;62.50
14585;DHT22;7379;51.506;11.876;2023-07-30T09:05:18;21.30;62.40
14585;DHT22;7379;51.506;11.876;2023-07-30T09:07:45;21.30;62.60
14585;DHT22;7379;51.506;11.876;2023-07-30T09:10:12;21.30;62.80
14585;DHT22;7379;51.506;11.876;2023-07-30T09:12:39;21.30;62.90
14585;DHT22;7379;51.506;11.876;2023-07-30T09:15:07;21.30;62.90
14585;DHT22;7379;51.506;11.876;2023-07-30T09:17:34;21.30;63.20
14585;DHT22;7379;51.506;11.876;2023-07-30T09:20:01;21.30;63.20
14585;DHT22;7379;51.506;11.876;2023-07-30T09:22:31;21.30;63.30
14585;DHT22;7379;51.506;11.876;2023-07-30T09:25:02;21.30;63.20
14585;DHT22;7379;51.506;11.876;2023-07-30T09:27:29;21.30;62.90
14585;DHT22;7379;51.506;11.876;2023-07-30T09:29:56;21.30;62.90
14585;DHT22;7379;51.506;11.876;2023-07-30T09:32:26;21.30;62.90
14585;DHT22;7379;51.506;11.876;2023-07-30T09:34:53;21.30;63.00
14585;DHT22;7379;51.506;11.876;2023-07-30T09:37:20;21.30;62.90
14585;DHT22;7379;51.506;11.876;2023-07-30T09:39:49;21.30;63.00
14585;DHT22;7379;51.506;11.876;2023-07-30T09:42:16;21.20;62.70
14585;DHT22;7379;51.506;11.876;2023-07-30T09:44:43;21.30;62.90
14585;DHT22;7379;51.506;11.876;2023-07-30T09:47:13;21.30;63.00
14585;DHT22;7379;51.506;11.876;2023-07-30T09:49:39;21.30;62.70
14585;DHT22;7379;51.506;11.876;2023-07-30T09:52:06;21.40;62.40
14585;DHT22;7379;51.506;11.876;2023-07-30T09:54:33;21.40;62.00
14585;DHT22;7379;51.506;11.876;2023-07-30T09:57:03;21.50;62.10
14585;DHT22;7379;51.506;11.876;2023-07-30T09:59:30;21.50;61.80
14585;DHT22;7379;51.506;11.876;2023-07-30T10:01:57;21.50;61.50
14585;DHT22;7379;51.506;11.876;2023-07-30T10:04:24;21.50;62.00
14585;DHT22;7379;51.506;11.876;2023-07-30T10:06:56;21.50;61.50
14585;DHT22;7379;51.506;11.876;2023-07-30T10:09:27;21.60;61.50
14585;DHT22;7379;51.506;11.876;2023-07-30T10:11:55;21.60;61.30
14585;DHT22;7379;51.506;11.876;2023-07-30T10:14:24;21.60;61.00
14585;DHT22;7379;51.506;11.876;2023-07-30T10:16:53;21.60;60.90
14585;DHT22;7379;51.506;11.876;2023-07-30T10:19:24;21.70;60.90
14585;DHT22;7379;51.506;11.876;2023-07-30T10:21:51;21.70;61.20
14585;DHT22;7379;51.506;11.876;2023-07-30T10:24:18;21.70;60.60
14585;DHT22;7379;51.506;11.876;2023-07-30T10:26:44;21.80;60.70
14585;DHT22;7379;51.506;11.876;2023-07-30T10:29:15;21.80;60.30
14585;DHT22;7379;51.506;11.876;2023-07-30T10:31:47;21.80;60.40
14585;DHT22;7379;51.506;11.876;2023-07-30T10:34:14;21.80;59.90
14585;DHT22;7379;51.506;11.876;2023-07-30T10:36:43;21.90;60.10
14585;DHT22;7379;51.506;11.876;2023-07-30T10:39:14;21.90;59.60
14585;DHT22;7379;51.506;11.876;2023-07-30T10:41:43;21.90;59.90
14585;DHT22;7379;51.506;11.876;2023-07-30T10:44:18;21.90;59.60
14585;DHT22;7379;51.506;11.876;2023-07-30T10:46:46;22.00;59.50
14585;DHT22;7379;51.506;11.876;2023-07-30T10:49:13;22.00;59.70
14585;DHT22;7379;51.506;11.876;2023-07-30T10:51:39;22.00;59.60
14585;DHT22;7379;51.506;11.876;2023-07-30T10:54:07;22.10;59.30
14585;DHT22;7379;51.506;11.876;2023-07-30T10:56:35;22.10;59.20
14585;DHT22;7379;51.506;11.876;2023-07-30T10:59:04;22.10;59.20
14585;DHT22;7379;51.506;11.876;2023-07-30T11:01:31;22.10;59.60
14585;DHT22;7379;51.506;11.876;2023-07-30T11:03:59;22.10;59.40
14585;DHT22;7379;51.506;11.876;2023-07-30T11:06:26;22.10;59.40
14585;DHT22;7379;51.506;11.876;2023-07-30T11:08:53;22.10;59.10
14585;DHT22;7379;51.506;11.876;2023-07-30T11:11:20;22.20;59.20
14585;DHT22;7379;51.506;11.876;2023-07-30T11:13:49;22.20;59.10
14585;DHT22;7379;51.506;11.876;2023-07-30T11:16:16;22.20;59.20
14585;DHT22;7379;51.506;11.876;2023-07-30T11:18:44;22.20;58.90
14585;DHT22;7379;51.506;11.876;2023-07-30T11:21:14;22.20;59.00
14585;DHT22;7379;51.506;11.876;2023-07-30T11:23:42;22.20;59.10
14585;DHT22;7379;51.506;11.876;2023-07-30T11:26:13;22.20;59.30
14585;DHT22;7379;51.506;11.876;2023-07-30T11:28:40;22.20;59.20
14585;DHT22;7379;51.506;11.876;2023-07-30T11:31:08;22.30;59.40
14585;DHT22;7379;51.506;11.876;2023-07-30T11:33:36;22.30;59.20
14585;DHT22;7379;51.506;11.876;2023-07-30T11:36:03;22.30;59.30
14585;DHT22;7379;51.506;11.876;2023-07-30T11:38:32;22.30;59.20
14585;DHT22;7379;51.506;11.876;2023-07-30T11:40:59;22.30;59.20
14585;DHT22;7379;51.506;11.876;2023-07-30T11:43:26;22.30;59.40
14585;DHT22;7379;51.506;11.876;2023-07-30T11:46:10;22.30;59.60
14585;DHT22;7379;51.506;11.876;2023-07-30T11:48:37;22.30;59.60
14585;DHT22;7379;51.506;11.876;2023-07-30T11:51:04;22.20;59.20
14585;DHT22;7379;51.506;11.876;2023-07-30T11:53:46;22.20;59.40
14585;DHT22;7379;51.506;11.876;2023-07-30T11:56:19;22.20;59.20
14585;DHT22;7379;51.506;11.876;2023-07-30T11:58:47;22.20;59.10
14585;DHT22;7379;51.506;11.876;2023-07-30T12:01:14;22.20;59.20
14585;DHT22;7379;51.506;11.876;2023-07-30T12:03:41;22.20;59.00
14585;DHT22;7379;51.506;11.876;2023-07-30T12:06:09;22.30;59.00
14585;DHT22;7379;51.506;11.876;2023-07-30T12:08:37;22.30;59.10
14585;DHT22;7379;51.506;11.876;2023-07-30T12:11:06;22.20;59.10
14585;DHT22;7379;51.506;11.876;2023-07-30T12:13:34;22.20;59.00
14585;DHT22;7379;51.506;11.876;2023-07-30T12:16:02;22.20;59.10
14585;DHT22;7379;51.506;11.876;2023-07-30T12:18:28;22.20;59.40
14585;DHT22;7379;51.506;11.876;2023-07-30T12:20:55;22.20;59.20
14585;DHT22;7379;51.506;11.876;2023-07-30T12:23:23;22.20;59.30
14585;DHT22;7379;51.506;11.876;2023-07-30T12:25:51;22.10;59.40
14585;DHT22;7379;51.506;11.876;2023-07-30T12:28:19;22.20;59.60
14585;DHT22;7379;51.506;11.876;2023-07-30T12:30:46;22.10;59.60
14585;DHT22;7379;51.506;11.876;2023-07-30T12:33:13;22.10;59.70
14585;DHT22;7379;51.506;11.876;2023-07-30T12:35:40;22.10;60.00
14585;DHT22;7379;51.506;11.876;2023-07-30T12:38:06;22.10;60.30
14585;DHT22;7379;51.506;11.876;2023-07-30T12:40:33;22.10;60.70
14585;DHT22;7379;51.506;11.876;2023-07-30T12:43:01;22.00;61.20
14585;DHT22;7379;51.506;11.876;2023-07-30T12:45:30;22.00;61.80
14585;DHT22;7379;51.506;11.876;2023-07-30T12:47:57;22.00;62.20
14585;DHT22;7379;51.506;11.876;2023-07-30T12:50:24;22.00;62.60
14585;DHT22;7379;51.506;11.876;2023-07-30T12:52:51;22.00;62.90
14585;DHT22;7379;51.506;11.876;2023-07-30T12:55:18;21.90;63.00
14585;DHT22;7379;51.506;11.876;2023-07-30T12:57:45;21.90;63.90
14585;DHT22;7379;51.506;11.876;2023-07-30T13:00:12;21.90;64.10
14585;DHT22;7379;51.506;11.876;2023-07-30T13:02:40;21.90;64.40
14585;DHT22;7379;51.506;11.876;2023-07-30T13:05:07;21.90;64.90
14585;DHT22;7379;51.506;11.876;2023-07-30T13:07:34;22.00;65.40
14585;DHT22;7379;51.506;11.876;2023-07-30T13:10:05;22.00;65.80
14585;DHT22;7379;51.506;11.876;2023-07-30T13:12:32;22.10;66.10
14585;DHT22;7379;51.506;11.876;2023-07-30T13:14:59;22.20;65.70
14585;DHT22;7379;51.506;11.876;2023-07-30T13:17:26;22.20;65.10
14585;DHT22;7379;51.506;11.876;2023-07-30T13:19:55;22.30;65.00
14585;DHT22;7379;51.506;11.876;2023-07-30T13:22:21;22.30;65.20
14585;DHT22;7379;51.506;11.876;2023-07-30T13:24:48;22.30;65.30
14585;DHT22;7379;51.506;11.876;2023-07-30T13:27:16;22.20;65.20
14585;DHT22;7379;51.506;11.876;2023-07-30T13:29:43;22.30;65.40
14585;DHT22;7379;51.506;11.876;2023-07-30T13:32:10;22.20;65.50
14585;DHT22;7379;51.506;11.876;2023-07-30T13:34:37;22.20;65.50
14585;DHT22;7379;51.506;11.876;2023-07-30T13:37:06;22.20;65.70
14585;DHT22;7379;51.506;11.876;2023-07-30T13:39:32;22.20;65.60
14585;DHT22;7379;51.506;11.876;2023-07-30T13:41:59;22.20;65.60
14585;DHT22;7379;51.506;11.876;2023-07-30T13:44:26;22.20;65.50
14585;DHT22;7379;51.506;11.876;2023-07-30T13:46:53;22.20;65.50
14585;DHT22;7379;51.506;11.876;2023-07-30T13:49:20;22.20;65.50
14585;DHT22;7379;51.506;11.876;2023-07-30T13:51:47;22.20;65.60
14585;DHT22;7379;51.506;11.876;2023-07-30T13:54:15;22.20;65.70
14585;DHT22;7379;51.506;11.876;2023-07-30T13:56:41;22.20;65.60
14585;DHT22;7379;51.506;11.876;2023-07-30T13:59:08;22.20;65.70
14585;DHT22;7379;51.506;11.876;2023-07-30T14:01:35;22.20;65.30
14585;DHT22;7379;51.506;11.876;2023-07-30T14:04:02;22.20;65.30
14585;DHT22;7379;51.506;11.876;2023-07-30T14:06:28;22.30;65.40
14585;DHT22;7379;51.506;11.876;2023-07-30T14:08:56;22.30;65.40
14585;DHT22;7379;51.506;11.876;2023-07-30T14:11:26;22.20;65.40
14585;DHT22;7379;51.506;11.876;2023-07-30T14:13:52;22.20;65.40
14585;DHT22;7379;51.506;11.876;2023-07-30T14:16:19;22.20;65.50
14585;DHT22;7379;51.506;11.876;2023-07-30T14:18:46;22.20;65.60
14585;DHT22;7379;51.506;11.876;2023-07-30T14:21:13;22.20;65.60
14585;DHT22;7379;51.506;11.876;2023-07-30T14:23:39;22.10;65.50
14585;DHT22;7379;51.506;11.876;2023-07-30T14:26:06;22.10;65.60
14585;DHT22;7379;51.506;11.876;2023-07-30T14:28:34;22.10;65.70
14585;DHT22;7379;51.506;11.876;2023-07-30T14:31:01;22.10;65.80
14585;DHT22;7379;51.506;11.876;2023-07-30T14:33:28;22.10;65.90
14585;DHT22;7379;51.506;11.876;2023-07-30T14:35:55;22.10;67.10
14585;DHT22;7379;51.506;11.876;2023-07-30T14:38:22;22.10;67.10
14585;DHT22;7379;51.506;11.876;2023-07-30T14:40:48;22.10;66.60
14585;DHT22;7379;51.506;11.876;2023-07-30T14:43:15;22.10;67.70
14585;DHT22;7379;51.506;11.876;2023-07-30T14:45:43;22.10;67.60
14585;DHT22;7379;51.506;11.876;2023-07-30T14:48:10;22.10;67.10
14585;DHT22;7379;51.506;11.876;2023-07-30T14:50:37;22.10;67.50
14585;DHT22;7379;51.506;11.876;2023-07-30T14:53:03;22.10;67.30
14585;DHT22;7379;51.506;11.876;2023-07-30T14:55:30;22.00;67.00
14585;DHT22;7379;51.506;11.876;2023-07-30T14:57:57;22.00;67.20
14585;DHT22;7379;51.506;11.876;2023-07-30T15:00:23;22.00;67.20
14585;DHT22;7379;51.506;11.876;2023-07-30T15:02:53;22.00;67.30
14585;DHT22;7379;51.506;11.876;2023-07-30T15:05:20;22.00;67.30
14585;DHT22;7379;51.506;11.876;2023-07-30T15:07:46;22.00;67.30
14585;DHT22;7379;51.506;11.876;2023-07-30T15:10:13;22.00;67.30
14585;DHT22;7379;51.506;11.876;2023-07-30T15:12:41;22.00;67.20
14585;DHT22;7379;51.506;11.876;2023-07-30T15:15:09;22.00;67.20
14585;DHT22;7379;51.506;11.876;2023-07-30T15:17:36;21.90;67.20
14585;DHT22;7379;51.506;11.876;2023-07-30T15:20:05;21.90;67.20
14585;DHT22;7379;51.506;11.876;2023-07-30T15:22:32;21.90;67.00
14585;DHT22;7379;51.506;11.876;2023-07-30T15:24:59;21.90;66.80
14585;DHT22;7379;51.506;11.876;2023-07-30T15:27:25;21.90;66.40
14585;DHT22;7379;51.506;11.876;2023-07-30T15:29:52;21.90;65.90
14585;DHT22;7379;51.506;11.876;2023-07-30T15:32:19;21.90;65.90
14585;DHT22;7379;51.506;11.876;2023-07-30T15:34:45;21.90;65.60
14585;DHT22;7379;51.506;11.876;2023-07-30T15:37:13;21.90;65.20